sensor_id;sensor_type;location;lat;lon;timestamp;P1;durP1;ratioP1;P2;durP2;ratioP2
41311;SDS011;27061;41.648;24.568;2022-07-29T00:01:40;20.73;;;6.95;;
41311;SDS011;27061;41.648;24.568;2022-07-29T00:04:09;9.00;;;6.60;;
41311;SDS011;27061;41.648;24.568;2022-07-29T00:06:36;23.55;;;6.25;;
41311;SDS011;27061;41.648;24.568;2022-07-29T00:09:52;7.32;;;6.32;;
41311;SDS011;27061;41.648;24.568;2022-07-29T00:12:22;10.10;;;6.38;;
41311;SDS011;27061;41.648;24.568;2022-07-29T00:14:53;18.52;;;6.18;;
41311;SDS011;27061;41.648;24.568;2022-07-29T00:17:23;8.23;;;6.25;;
41311;SDS011;27061;41.648;24.568;2022-07-29T00:22:44;6.97;;;5.78;;
41311;SDS011;27061;41.648;24.568;2022-07-29T00:25:12;5.93;;;5.32;;
41311;SDS011;27061;41.648;24.568;2022-07-29T00:27:39;9.98;;;5.68;;
41311;SDS011;27061;41.648;24.568;2022-07-29T00:30:12;5.82;;;5.32;;
41311;SDS011;27061;41.648;24.568;2022-07-29T00:32:40;12.00;;;6.03;;
41311;SDS011;27061;41.648;24.568;2022-07-29T00:35:15;12.73;;;5.65;;
41311;SDS011;27061;41.648;24.568;2022-07-29T00:38:01;8.98;;;5.40;;
41311;SDS011;27061;41.648;24.568;2022-07-29T00:40:29;24.77;;;6.45;;
41311;SDS011;27061;41.648;24.568;2022-07-29T00:42:56;10.98;;;6.20;;
41311;SDS011;27061;41.648;24.568;2022-07-29T00:45:24;10.00;;;5.68;;
41311;SDS011;27061;41.648;24.568;2022-07-29T00:47:53;16.33;;;6.25;;
41311;SDS011;27061;41.648;24.568;2022-07-29T00:50:22;7.50;;;5.85;;
41311;SDS011;27061;41.648;24.568;2022-07-29T00:52:56;6.22;;;5.65;;
41311;SDS011;27061;41.648;24.568;2022-07-29T00:55:24;26.50;;;7.38;;
41311;SDS011;27061;41.648;24.568;2022-07-29T00:57:52;9.80;;;6.57;;
41311;SDS011;27061;41.648;24.568;2022-07-29T01:00:21;6.30;;;5.40;;
41311;SDS011;27061;41.648;24.568;2022-07-29T01:02:52;7.90;;;6.05;;
41311;SDS011;27061;41.648;24.568;2022-07-29T01:05:21;5.90;;;5.30;;
41311;SDS011;27061;41.648;24.568;2022-07-29T01:07:51;27.27;;;6.57;;
41311;SDS011;27061;41.648;24.568;2022-07-29T01:10:21;12.05;;;6.18;;
41311;SDS011;27061;41.648;24.568;2022-07-29T01:12:51;7.30;;;5.65;;
41311;SDS011;27061;41.648;24.568;2022-07-29T01:15:21;13.95;;;7.13;;
41311;SDS011;27061;41.648;24.568;2022-07-29T01:18:01;7.88;;;6.07;;
41311;SDS011;27061;41.648;24.568;2022-07-29T01:32:19;9.35;;;5.32;;
41311;SDS011;27061;41.648;24.568;2022-07-29T01:35:02;8.32;;;5.18;;
41311;SDS011;27061;41.648;24.568;2022-07-29T01:37:43;7.07;;;5.13;;
41311;SDS011;27061;41.648;24.568;2022-07-29T01:40:58;6.57;;;5.40;;
41311;SDS011;27061;41.648;24.568;2022-07-29T01:43:10;6.43;;;5.05;;
41311;SDS011;27061;41.648;24.568;2022-07-29T01:45:46;5.55;;;5.10;;
41311;SDS011;27061;41.648;24.568;2022-07-29T01:48:19;6.82;;;6.05;;
41311;SDS011;27061;41.648;24.568;2022-07-29T01:50:57;17.88;;;6.40;;
41311;SDS011;27061;41.648;24.568;2022-07-29T01:53:38;10.50;;;5.72;;
41311;SDS011;27061;41.648;24.568;2022-07-29T01:56:28;7.22;;;5.35;;
41311;SDS011;27061;41.648;24.568;2022-07-29T01:59:01;10.65;;;5.70;;
41311;SDS011;27061;41.648;24.568;2022-07-29T02:01:33;9.40;;;5.82;;
41311;SDS011;27061;41.648;24.568;2022-07-29T02:04:03;30.00;;;6.53;;
41311;SDS011;27061;41.648;24.568;2022-07-29T02:09:53;16.30;;;6.20;;
41311;SDS011;27061;41.648;24.568;2022-07-29T02:12:23;10.32;;;5.25;;
41311;SDS011;27061;41.648;24.568;2022-07-29T02:14:53;7.50;;;6.00;;
41311;SDS011;27061;41.648;24.568;2022-07-29T02:17:31;9.57;;;5.43;;
41311;SDS011;27061;41.648;24.568;2022-07-29T02:20:06;7.28;;;6.22;;
41311;SDS011;27061;41.648;24.568;2022-07-29T02:22:38;6.13;;;5.45;;
41311;SDS011;27061;41.648;24.568;2022-07-29T02:25:10;8.52;;;6.43;;
41311;SDS011;27061;41.648;24.568;2022-07-29T02:27:40;10.30;;;6.32;;
41311;SDS011;27061;41.648;24.568;2022-07-29T02:33:06;11.13;;;6.15;;
41311;SDS011;27061;41.648;24.568;2022-07-29T02:35:37;14.43;;;6.32;;
41311;SDS011;27061;41.648;24.568;2022-07-29T02:38:09;16.08;;;6.45;;
41311;SDS011;27061;41.648;24.568;2022-07-29T02:40:58;10.13;;;6.03;;
41311;SDS011;27061;41.648;24.568;2022-07-29T02:43:30;7.70;;;7.00;;
41311;SDS011;27061;41.648;24.568;2022-07-29T02:52:16;9.73;;;6.03;;
41311;SDS011;27061;41.648;24.568;2022-07-29T02:55:06;12.77;;;7.13;;
41311;SDS011;27061;41.648;24.568;2022-07-29T02:57:43;6.03;;;5.43;;
41311;SDS011;27061;41.648;24.568;2022-07-29T03:00:21;16.90;;;6.50;;
41311;SDS011;27061;41.648;24.568;2022-07-29T03:02:56;7.97;;;4.82;;
41311;SDS011;27061;41.648;24.568;2022-07-29T03:05:27;13.10;;;6.18;;
41311;SDS011;27061;41.648;24.568;2022-07-29T03:08:25;18.67;;;6.05;;
41311;SDS011;27061;41.648;24.568;2022-07-29T03:10:55;13.52;;;5.78;;
41311;SDS011;27061;41.648;24.568;2022-07-29T03:13:23;8.75;;;5.38;;
41311;SDS011;27061;41.648;24.568;2022-07-29T03:15:52;9.65;;;5.13;;
41311;SDS011;27061;41.648;24.568;2022-07-29T03:18:21;11.05;;;5.22;;
41311;SDS011;27061;41.648;24.568;2022-07-29T03:20:49;6.85;;;4.30;;
41311;SDS011;27061;41.648;24.568;2022-07-29T03:23:20;4.50;;;4.10;;
41311;SDS011;27061;41.648;24.568;2022-07-29T03:25:51;12.07;;;4.50;;
41311;SDS011;27061;41.648;24.568;2022-07-29T03:28:20;5.32;;;4.35;;
41311;SDS011;27061;41.648;24.568;2022-07-29T03:30:53;6.03;;;3.88;;
41311;SDS011;27061;41.648;24.568;2022-07-29T03:33:22;9.27;;;4.57;;
41311;SDS011;27061;41.648;24.568;2022-07-29T03:35:51;4.53;;;4.10;;
41311;SDS011;27061;41.648;24.568;2022-07-29T03:38:20;4.20;;;3.90;;
41311;SDS011;27061;41.648;24.568;2022-07-29T03:41:02;19.20;;;4.53;;
41311;SDS011;27061;41.648;24.568;2022-07-29T03:43:35;11.70;;;3.72;;
41311;SDS011;27061;41.648;24.568;2022-07-29T03:46:15;13.68;;;4.80;;
41311;SDS011;27061;41.648;24.568;2022-07-29T03:48:46;10.80;;;4.07;;
41311;SDS011;27061;41.648;24.568;2022-07-29T03:51:18;6.75;;;3.97;;
41311;SDS011;27061;41.648;24.568;2022-07-29T03:54:00;4.40;;;3.83;;
41311;SDS011;27061;41.648;24.568;2022-07-29T03:56:38;8.65;;;3.90;;
41311;SDS011;27061;41.648;24.568;2022-07-29T03:59:08;6.53;;;4.13;;
41311;SDS011;27061;41.648;24.568;2022-07-29T04:01:38;9.93;;;3.85;;
41311;SDS011;27061;41.648;24.568;2022-07-29T04:04:06;26.83;;;5.07;;
41311;SDS011;27061;41.648;24.568;2022-07-29T04:06:37;11.30;;;4.47;;
41311;SDS011;27061;41.648;24.568;2022-07-29T04:09:39;8.35;;;3.78;;
41311;SDS011;27061;41.648;24.568;2022-07-29T04:12:07;13.05;;;4.50;;
41311;SDS011;27061;41.648;24.568;2022-07-29T04:14:35;8.02;;;4.18;;
41311;SDS011;27061;41.648;24.568;2022-07-29T04:17:04;8.45;;;4.38;;
41311;SDS011;27061;41.648;24.568;2022-07-29T04:19:31;7.25;;;4.25;;
41311;SDS011;27061;41.648;24.568;2022-07-29T04:22:00;17.40;;;4.53;;
41311;SDS011;27061;41.648;24.568;2022-07-29T04:24:28;7.93;;;4.35;;
41311;SDS011;27061;41.648;24.568;2022-07-29T04:26:56;5.78;;;3.63;;
41311;SDS011;27061;41.648;24.568;2022-07-29T04:29:23;28.25;;;5.28;;
41311;SDS011;27061;41.648;24.568;2022-07-29T04:31:53;9.32;;;4.63;;
41311;SDS011;27061;41.648;24.568;2022-07-29T04:34:21;12.50;;;4.53;;
41311;SDS011;27061;41.648;24.568;2022-07-29T04:37:13;8.48;;;4.20;;
41311;SDS011;27061;41.648;24.568;2022-07-29T04:39:41;6.95;;;4.70;;
41311;SDS011;27061;41.648;24.568;2022-07-29T04:42:08;5.05;;;4.55;;
41311;SDS011;27061;41.648;24.568;2022-07-29T04:44:36;5.93;;;5.18;;
41311;SDS011;27061;41.648;24.568;2022-07-29T04:47:12;5.57;;;4.88;;
41311;SDS011;27061;41.648;24.568;2022-07-29T04:49:39;5.68;;;4.63;;
41311;SDS011;27061;41.648;24.568;2022-07-29T04:52:07;5.82;;;5.13;;
41311;SDS011;27061;41.648;24.568;2022-07-29T04:54:34;4.72;;;4.32;;
41311;SDS011;27061;41.648;24.568;2022-07-29T04:57:03;4.00;;;3.67;;
41311;SDS011;27061;41.648;24.568;2022-07-29T04:59:36;10.05;;;4.40;;
41311;SDS011;27061;41.648;24.568;2022-07-29T05:02:03;13.10;;;4.10;;
41311;SDS011;27061;41.648;24.568;2022-07-29T05:04:31;9.00;;;4.50;;
41311;SDS011;27061;41.648;24.568;2022-07-29T05:06:58;4.28;;;3.97;;
41311;SDS011;27061;41.648;24.568;2022-07-29T05:09:25;4.75;;;4.28;;
41311;SDS011;27061;41.648;24.568;2022-07-29T05:11:53;16.65;;;5.00;;
41311;SDS011;27061;41.648;24.568;2022-07-29T05:14:20;4.93;;;3.63;;
41311;SDS011;27061;41.648;24.568;2022-07-29T05:17:13;3.88;;;3.58;;
41311;SDS011;27061;41.648;24.568;2022-07-29T05:22:34;14.63;;;4.22;;
41311;SDS011;27061;41.648;24.568;2022-07-29T05:28:11;4.38;;;4.05;;
41311;SDS011;27061;41.648;24.568;2022-07-29T05:30:43;4.60;;;4.30;;
41311;SDS011;27061;41.648;24.568;2022-07-29T05:33:12;6.28;;;4.10;;
41311;SDS011;27061;41.648;24.568;2022-07-29T05:36:00;11.45;;;4.30;;
41311;SDS011;27061;41.648;24.568;2022-07-29T05:38:28;10.73;;;4.30;;
41311;SDS011;27061;41.648;24.568;2022-07-29T05:40:56;11.75;;;4.82;;
41311;SDS011;27061;41.648;24.568;2022-07-29T05:43:26;10.93;;;4.05;;
41311;SDS011;27061;41.648;24.568;2022-07-29T05:45:54;5.03;;;4.63;;
41311;SDS011;27061;41.648;24.568;2022-07-29T05:48:47;9.80;;;5.05;;
41311;SDS011;27061;41.648;24.568;2022-07-29T05:51:15;6.90;;;5.50;;
41311;SDS011;27061;41.648;24.568;2022-07-29T05:53:42;6.80;;;4.80;;
41311;SDS011;27061;41.648;24.568;2022-07-29T05:56:35;10.02;;;3.80;;
41311;SDS011;27061;41.648;24.568;2022-07-29T05:59:04;3.63;;;3.42;;
41311;SDS011;27061;41.648;24.568;2022-07-29T06:01:43;5.03;;;3.50;;
41311;SDS011;27061;41.648;24.568;2022-07-29T06:04:11;13.00;;;4.13;;
41311;SDS011;27061;41.648;24.568;2022-07-29T06:10:00;4.15;;;3.78;;
41311;SDS011;27061;41.648;24.568;2022-07-29T06:12:28;4.60;;;3.47;;
41311;SDS011;27061;41.648;24.568;2022-07-29T06:14:55;11.18;;;3.90;;
41311;SDS011;27061;41.648;24.568;2022-07-29T06:17:23;15.52;;;3.78;;
41311;SDS011;27061;41.648;24.568;2022-07-29T06:19:51;6.47;;;3.50;;
41311;SDS011;27061;41.648;24.568;2022-07-29T06:22:19;5.15;;;2.70;;
41311;SDS011;27061;41.648;24.568;2022-07-29T06:27:39;9.07;;;3.00;;
41311;SDS011;27061;41.648;24.568;2022-07-29T06:33:03;5.32;;;2.83;;
41311;SDS011;27061;41.648;24.568;2022-07-29T06:35:33;4.45;;;2.85;;
41311;SDS011;27061;41.648;24.568;2022-07-29T06:38:07;9.68;;;2.90;;
41311;SDS011;27061;41.648;24.568;2022-07-29T06:40:55;16.02;;;2.53;;
41311;SDS011;27061;41.648;24.568;2022-07-29T06:43:53;3.70;;;3.00;;
41311;SDS011;27061;41.648;24.568;2022-07-29T06:46:22;2.35;;;2.20;;
41311;SDS011;27061;41.648;24.568;2022-07-29T06:48:50;7.47;;;2.35;;
41311;SDS011;27061;41.648;24.568;2022-07-29T06:51:19;10.85;;;2.47;;
41311;SDS011;27061;41.648;24.568;2022-07-29T06:53:50;2.92;;;2.53;;
41311;SDS011;27061;41.648;24.568;2022-07-29T06:59:22;8.07;;;2.45;;
41311;SDS011;27061;41.648;24.568;2022-07-29T07:02:04;1.95;;;1.80;;
41311;SDS011;27061;41.648;24.568;2022-07-29T07:04:32;1.92;;;1.83;;
41311;SDS011;27061;41.648;24.568;2022-07-29T07:10:18;10.40;;;2.10;;
41311;SDS011;27061;41.648;24.568;2022-07-29T07:12:45;2.95;;;1.95;;
41311;SDS011;27061;41.648;24.568;2022-07-29T07:15:13;6.20;;;1.83;;
41311;SDS011;27061;41.648;24.568;2022-07-29T07:18:10;3.60;;;1.85;;
41311;SDS011;27061;41.648;24.568;2022-07-29T07:20:38;6.05;;;1.70;;
41311;SDS011;27061;41.648;24.568;2022-07-29T07:23:06;2.10;;;1.90;;
41311;SDS011;27061;41.648;24.568;2022-07-29T07:28:25;5.15;;;2.05;;
41311;SDS011;27061;41.648;24.568;2022-07-29T07:30:53;2.20;;;2.00;;
41311;SDS011;27061;41.648;24.568;2022-07-29T07:33:20;2.38;;;1.63;;
41311;SDS011;27061;41.648;24.568;2022-07-29T07:35:47;4.00;;;1.60;;
41311;SDS011;27061;41.648;24.568;2022-07-29T07:38:16;1.67;;;1.58;;
41311;SDS011;27061;41.648;24.568;2022-07-29T07:40:43;1.75;;;1.65;;
41311;SDS011;27061;41.648;24.568;2022-07-29T07:43:13;4.10;;;1.95;;
41311;SDS011;27061;41.648;24.568;2022-07-29T07:45:40;1.65;;;1.55;;
41311;SDS011;27061;41.648;24.568;2022-07-29T07:48:08;1.80;;;1.70;;
41311;SDS011;27061;41.648;24.568;2022-07-29T07:50:36;6.82;;;2.45;;
41311;SDS011;27061;41.648;24.568;2022-07-29T07:55:58;1.83;;;1.73;;
41311;SDS011;27061;41.648;24.568;2022-07-29T07:58:38;5.97;;;1.63;;
41311;SDS011;27061;41.648;24.568;2022-07-29T08:01:05;4.70;;;1.85;;
41311;SDS011;27061;41.648;24.568;2022-07-29T08:06:27;2.00;;;1.90;;
41311;SDS011;27061;41.648;24.568;2022-07-29T08:08:55;6.72;;;1.63;;
41311;SDS011;27061;41.648;24.568;2022-07-29T08:11:43;2.83;;;1.77;;
41311;SDS011;27061;41.648;24.568;2022-07-29T08:14:18;5.57;;;2.03;;
41311;SDS011;27061;41.648;24.568;2022-07-29T08:16:46;4.80;;;1.55;;
41311;SDS011;27061;41.648;24.568;2022-07-29T08:19:14;2.90;;;1.55;;
41311;SDS011;27061;41.648;24.568;2022-07-29T08:24:34;1.92;;;1.83;;
41311;SDS011;27061;41.648;24.568;2022-07-29T08:27:36;3.17;;;2.20;;
41311;SDS011;27061;41.648;24.568;2022-07-29T08:30:09;4.72;;;2.30;;
41311;SDS011;27061;41.648;24.568;2022-07-29T08:32:38;1.95;;;1.85;;
41311;SDS011;27061;41.648;24.568;2022-07-29T08:35:22;2.17;;;2.00;;
41311;SDS011;27061;41.648;24.568;2022-07-29T08:37:51;4.57;;;2.25;;
41311;SDS011;27061;41.648;24.568;2022-07-29T08:40:20;2.45;;;2.25;;
41311;SDS011;27061;41.648;24.568;2022-07-29T08:42:59;4.10;;;1.92;;
41311;SDS011;27061;41.648;24.568;2022-07-29T08:45:42;3.33;;;2.20;;
41311;SDS011;27061;41.648;24.568;2022-07-29T08:51:07;2.22;;;2.00;;
41311;SDS011;27061;41.648;24.568;2022-07-29T08:56:29;1.80;;;1.70;;
41311;SDS011;27061;41.648;24.568;2022-07-29T08:59:24;6.80;;;2.10;;
41311;SDS011;27061;41.648;24.568;2022-07-29T09:02:19;3.78;;;2.10;;
41311;SDS011;27061;41.648;24.568;2022-07-29T09:04:49;12.35;;;3.58;;
41311;SDS011;27061;41.648;24.568;2022-07-29T09:07:17;4.07;;;2.45;;
41311;SDS011;27061;41.648;24.568;2022-07-29T09:10:10;7.35;;;2.50;;
41311;SDS011;27061;41.648;24.568;2022-07-29T09:12:38;2.13;;;1.92;;
41311;SDS011;27061;41.648;24.568;2022-07-29T09:15:06;2.47;;;2.25;;
41311;SDS011;27061;41.648;24.568;2022-07-29T09:17:43;6.10;;;2.28;;
41311;SDS011;27061;41.648;24.568;2022-07-29T09:20:15;3.08;;;1.90;;
41311;SDS011;27061;41.648;24.568;2022-07-29T09:22:45;4.57;;;2.08;;
41311;SDS011;27061;41.648;24.568;2022-07-29T09:28:09;2.13;;;2.00;;
41311;SDS011;27061;41.648;24.568;2022-07-29T09:30:51;9.27;;;2.60;;
41311;SDS011;27061;41.648;24.568;2022-07-29T09:33:21;1.90;;;1.80;;
41311;SDS011;27061;41.648;24.568;2022-07-29T09:36:00;1.90;;;1.83;;
41311;SDS011;27061;41.648;24.568;2022-07-29T09:38:31;1.80;;;1.63;;
41311;SDS011;27061;41.648;24.568;2022-07-29T09:41:28;1.95;;;1.85;;
41311;SDS011;27061;41.648;24.568;2022-07-29T09:43:57;4.00;;;1.98;;
41311;SDS011;27061;41.648;24.568;2022-07-29T09:46:26;1.85;;;1.80;;
41311;SDS011;27061;41.648;24.568;2022-07-29T09:52:13;2.95;;;2.42;;
41311;SDS011;27061;41.648;24.568;2022-07-29T09:54:41;2.10;;;2.00;;
41311;SDS011;27061;41.648;24.568;2022-07-29T09:57:09;3.38;;;1.90;;
41311;SDS011;27061;41.648;24.568;2022-07-29T10:00:16;2.55;;;2.35;;
41311;SDS011;27061;41.648;24.568;2022-07-29T10:02:47;4.15;;;1.98;;
41311;SDS011;27061;41.648;24.568;2022-07-29T10:05:23;2.22;;;2.03;;
41311;SDS011;27061;41.648;24.568;2022-07-29T10:08:01;1.70;;;1.60;;
41311;SDS011;27061;41.648;24.568;2022-07-29T10:10:30;3.50;;;2.00;;
41311;SDS011;27061;41.648;24.568;2022-07-29T10:13:03;12.13;;;1.95;;
41311;SDS011;27061;41.648;24.568;2022-07-29T10:15:44;1.80;;;1.70;;
41311;SDS011;27061;41.648;24.568;2022-07-29T10:18:13;7.93;;;1.90;;
41311;SDS011;27061;41.648;24.568;2022-07-29T10:20:44;2.00;;;1.90;;
41311;SDS011;27061;41.648;24.568;2022-07-29T10:23:13;2.60;;;2.38;;
41311;SDS011;27061;41.648;24.568;2022-07-29T10:25:41;4.75;;;1.40;;
41311;SDS011;27061;41.648;24.568;2022-07-29T10:31:05;2.75;;;1.83;;
41311;SDS011;27061;41.648;24.568;2022-07-29T10:42:27;3.08;;;1.80;;
41311;SDS011;27061;41.648;24.568;2022-07-29T10:45:18;3.58;;;1.95;;
41311;SDS011;27061;41.648;24.568;2022-07-29T10:47:46;2.33;;;1.92;;
41311;SDS011;27061;41.648;24.568;2022-07-29T10:56:43;4.25;;;2.20;;
41311;SDS011;27061;41.648;24.568;2022-07-29T11:10:47;3.00;;;2.20;;
41311;SDS011;27061;41.648;24.568;2022-07-29T11:16:14;1.88;;;1.77;;
41311;SDS011;27061;41.648;24.568;2022-07-29T11:21:40;2.05;;;1.95;;
41311;SDS011;27061;41.648;24.568;2022-07-29T11:24:30;2.13;;;2.03;;
41311;SDS011;27061;41.648;24.568;2022-07-29T11:27:13;2.00;;;1.90;;
41311;SDS011;27061;41.648;24.568;2022-07-29T11:29:52;4.78;;;1.70;;
41311;SDS011;27061;41.648;24.568;2022-07-29T11:32:49;2.55;;;2.35;;
41311;SDS011;27061;41.648;24.568;2022-07-29T11:35:18;3.03;;;1.80;;
41311;SDS011;27061;41.648;24.568;2022-07-29T11:38:24;2.00;;;1.90;;
41311;SDS011;27061;41.648;24.568;2022-07-29T11:41:25;2.53;;;1.70;;
41311;SDS011;27061;41.648;24.568;2022-07-29T11:43:54;18.17;;;2.40;;
41311;SDS011;27061;41.648;24.568;2022-07-29T11:46:46;5.97;;;2.33;;
41311;SDS011;27061;41.648;24.568;2022-07-29T11:49:20;1.75;;;1.65;;
41311;SDS011;27061;41.648;24.568;2022-07-29T11:52:15;2.67;;;2.00;;
41311;SDS011;27061;41.648;24.568;2022-07-29T11:54:46;7.57;;;2.33;;
41311;SDS011;27061;41.648;24.568;2022-07-29T11:57:26;1.83;;;1.73;;
41311;SDS011;27061;41.648;24.568;2022-07-29T12:00:32;7.35;;;2.17;;
41311;SDS011;27061;41.648;24.568;2022-07-29T12:03:05;3.53;;;1.80;;
41311;SDS011;27061;41.648;24.568;2022-07-29T12:05:38;2.65;;;2.10;;
41311;SDS011;27061;41.648;24.568;2022-07-29T12:08:18;3.70;;;1.83;;
41311;SDS011;27061;41.648;24.568;2022-07-29T12:10:50;2.00;;;1.50;;
41311;SDS011;27061;41.648;24.568;2022-07-29T12:13:19;2.95;;;1.63;;
41311;SDS011;27061;41.648;24.568;2022-07-29T12:15:56;9.43;;;2.47;;
41311;SDS011;27061;41.648;24.568;2022-07-29T12:18:26;6.43;;;2.15;;
41311;SDS011;27061;41.648;24.568;2022-07-29T12:21:01;1.70;;;1.70;;
41311;SDS011;27061;41.648;24.568;2022-07-29T12:23:31;1.83;;;1.73;;
41311;SDS011;27061;41.648;24.568;2022-07-29T12:26:04;1.75;;;1.52;;
41311;SDS011;27061;41.648;24.568;2022-07-29T12:29:15;4.82;;;1.80;;
41311;SDS011;27061;41.648;24.568;2022-07-29T12:32:07;2.17;;;1.95;;
41311;SDS011;27061;41.648;24.568;2022-07-29T12:34:45;1.88;;;1.80;;
41311;SDS011;27061;41.648;24.568;2022-07-29T12:37:17;4.53;;;1.77;;
41311;SDS011;27061;41.648;24.568;2022-07-29T12:39:57;3.28;;;2.00;;
41311;SDS011;27061;41.648;24.568;2022-07-29T12:42:24;1.92;;;1.83;;
41311;SDS011;27061;41.648;24.568;2022-07-29T12:44:51;2.00;;;1.90;;
41311;SDS011;27061;41.648;24.568;2022-07-29T12:47:20;2.03;;;1.90;;
41311;SDS011;27061;41.648;24.568;2022-07-29T12:49:48;5.55;;;1.67;;
41311;SDS011;27061;41.648;24.568;2022-07-29T12:52:27;2.38;;;1.77;;
41311;SDS011;27061;41.648;24.568;2022-07-29T12:54:57;4.20;;;1.70;;
41311;SDS011;27061;41.648;24.568;2022-07-29T12:57:24;1.90;;;1.80;;
41311;SDS011;27061;41.648;24.568;2022-07-29T13:00:21;1.90;;;1.80;;
41311;SDS011;27061;41.648;24.568;2022-07-29T13:02:59;2.25;;;1.60;;
41311;SDS011;27061;41.648;24.568;2022-07-29T13:05:43;1.90;;;1.77;;
41311;SDS011;27061;41.648;24.568;2022-07-29T13:08:18;1.63;;;1.63;;
41311;SDS011;27061;41.648;24.568;2022-07-29T13:10:49;10.77;;;1.88;;
41311;SDS011;27061;41.648;24.568;2022-07-29T13:13:17;2.95;;;1.67;;
41311;SDS011;27061;41.648;24.568;2022-07-29T13:15:45;1.95;;;1.73;;
41311;SDS011;27061;41.648;24.568;2022-07-29T13:18:32;2.00;;;1.90;;
41311;SDS011;27061;41.648;24.568;2022-07-29T13:21:14;3.20;;;1.85;;
41311;SDS011;27061;41.648;24.568;2022-07-29T13:24:09;2.10;;;1.85;;
41311;SDS011;27061;41.648;24.568;2022-07-29T13:26:39;5.38;;;2.00;;
41311;SDS011;27061;41.648;24.568;2022-07-29T13:29:08;3.95;;;2.15;;
41311;SDS011;27061;41.648;24.568;2022-07-29T13:32:11;1.95;;;1.77;;
41311;SDS011;27061;41.648;24.568;2022-07-29T13:35:06;2.45;;;2.25;;
41311;SDS011;27061;41.648;24.568;2022-07-29T13:37:35;1.80;;;1.70;;
41311;SDS011;27061;41.648;24.568;2022-07-29T13:40:09;3.53;;;1.70;;
41311;SDS011;27061;41.648;24.568;2022-07-29T13:42:38;2.70;;;1.92;;
41311;SDS011;27061;41.648;24.568;2022-07-29T13:45:06;1.73;;;1.63;;
41311;SDS011;27061;41.648;24.568;2022-07-29T13:47:35;1.90;;;1.77;;
41311;SDS011;27061;41.648;24.568;2022-07-29T13:50:04;2.10;;;2.00;;
41311;SDS011;27061;41.648;24.568;2022-07-29T13:52:33;2.10;;;2.00;;
41311;SDS011;27061;41.648;24.568;2022-07-29T13:55:01;3.88;;;2.05;;
41311;SDS011;27061;41.648;24.568;2022-07-29T13:57:30;2.25;;;1.95;;
41311;SDS011;27061;41.648;24.568;2022-07-29T13:59:57;2.13;;;1.98;;
41311;SDS011;27061;41.648;24.568;2022-07-29T14:02:26;4.38;;;2.00;;
41311;SDS011;27061;41.648;24.568;2022-07-29T14:04:53;1.70;;;1.60;;
41311;SDS011;27061;41.648;24.568;2022-07-29T14:10:14;4.25;;;1.90;;
41311;SDS011;27061;41.648;24.568;2022-07-29T14:12:46;2.25;;;2.00;;
41311;SDS011;27061;41.648;24.568;2022-07-29T14:15:13;2.15;;;1.65;;
41311;SDS011;27061;41.648;24.568;2022-07-29T14:17:41;1.88;;;1.80;;
41311;SDS011;27061;41.648;24.568;2022-07-29T14:20:08;2.10;;;1.92;;
41311;SDS011;27061;41.648;24.568;2022-07-29T14:22:43;2.00;;;1.90;;
41311;SDS011;27061;41.648;24.568;2022-07-29T14:25:11;3.25;;;2.20;;
41311;SDS011;27061;41.648;24.568;2022-07-29T14:27:42;2.17;;;1.98;;
41311;SDS011;27061;41.648;24.568;2022-07-29T14:30:10;4.70;;;1.80;;
41311;SDS011;27061;41.648;24.568;2022-07-29T14:32:43;2.85;;;1.75;;
41311;SDS011;27061;41.648;24.568;2022-07-29T14:35:10;3.53;;;2.50;;
41311;SDS011;27061;41.648;24.568;2022-07-29T14:37:39;2.92;;;2.42;;
41311;SDS011;27061;41.648;24.568;2022-07-29T14:40:06;2.90;;;2.70;;
41311;SDS011;27061;41.648;24.568;2022-07-29T14:42:36;3.10;;;2.70;;
41311;SDS011;27061;41.648;24.568;2022-07-29T14:45:05;2.22;;;1.80;;
41311;SDS011;27061;41.648;24.568;2022-07-29T14:47:34;5.57;;;2.95;;
41311;SDS011;27061;41.648;24.568;2022-07-29T14:50:02;7.43;;;2.50;;
41311;SDS011;27061;41.648;24.568;2022-07-29T14:52:32;3.83;;;2.10;;
41311;SDS011;27061;41.648;24.568;2022-07-29T14:54:59;2.30;;;2.10;;
41311;SDS011;27061;41.648;24.568;2022-07-29T14:57:27;3.45;;;2.28;;
41311;SDS011;27061;41.648;24.568;2022-07-29T14:59:55;2.85;;;2.65;;
41311;SDS011;27061;41.648;24.568;2022-07-29T15:02:24;5.95;;;2.50;;
41311;SDS011;27061;41.648;24.568;2022-07-29T15:05:12;2.55;;;2.35;;
41311;SDS011;27061;41.648;24.568;2022-07-29T15:07:40;5.05;;;2.42;;
41311;SDS011;27061;41.648;24.568;2022-07-29T15:10:07;2.85;;;2.33;;
41311;SDS011;27061;41.648;24.568;2022-07-29T15:12:35;3.40;;;2.08;;
41311;SDS011;27061;41.648;24.568;2022-07-29T15:15:02;2.05;;;1.95;;
41311;SDS011;27061;41.648;24.568;2022-07-29T15:17:29;4.70;;;2.17;;
41311;SDS011;27061;41.648;24.568;2022-07-29T15:20:21;8.38;;;2.20;;
41311;SDS011;27061;41.648;24.568;2022-07-29T15:22:53;2.88;;;2.00;;
41311;SDS011;27061;41.648;24.568;2022-07-29T15:25:23;2.63;;;2.40;;
41311;SDS011;27061;41.648;24.568;2022-07-29T15:27:54;5.97;;;2.65;;
41311;SDS011;27061;41.648;24.568;2022-07-29T15:30:52;3.50;;;2.70;;
41311;SDS011;27061;41.648;24.568;2022-07-29T15:33:22;2.35;;;2.25;;
41311;SDS011;27061;41.648;24.568;2022-07-29T15:36:21;2.75;;;2.55;;
41311;SDS011;27061;41.648;24.568;2022-07-29T15:39:12;4.75;;;2.67;;
41311;SDS011;27061;41.648;24.568;2022-07-29T15:41:40;2.83;;;2.30;;
41311;SDS011;27061;41.648;24.568;2022-07-29T15:44:07;2.53;;;2.33;;
41311;SDS011;27061;41.648;24.568;2022-07-29T15:46:35;2.65;;;2.20;;
41311;SDS011;27061;41.648;24.568;2022-07-29T15:49:21;2.50;;;2.30;;
41311;SDS011;27061;41.648;24.568;2022-07-29T15:55:38;4.55;;;2.55;;
41311;SDS011;27061;41.648;24.568;2022-07-29T15:58:10;2.33;;;2.22;;
41311;SDS011;27061;41.648;24.568;2022-07-29T16:00:37;2.47;;;2.38;;
41311;SDS011;27061;41.648;24.568;2022-07-29T16:03:05;3.50;;;2.67;;
41311;SDS011;27061;41.648;24.568;2022-07-29T16:05:32;2.75;;;2.55;;
41311;SDS011;27061;41.648;24.568;2022-07-29T16:08:01;11.88;;;2.67;;
41311;SDS011;27061;41.648;24.568;2022-07-29T16:10:28;4.80;;;2.60;;
41311;SDS011;27061;41.648;24.568;2022-07-29T16:12:56;10.00;;;2.85;;
41311;SDS011;27061;41.648;24.568;2022-07-29T16:15:23;9.25;;;3.17;;
41311;SDS011;27061;41.648;24.568;2022-07-29T16:17:51;7.95;;;2.60;;
41311;SDS011;27061;41.648;24.568;2022-07-29T16:20:19;4.80;;;2.72;;
41311;SDS011;27061;41.648;24.568;2022-07-29T16:23:12;7.45;;;2.50;;
41311;SDS011;27061;41.648;24.568;2022-07-29T16:25:41;3.45;;;2.75;;
41311;SDS011;27061;41.648;24.568;2022-07-29T16:28:25;4.03;;;2.88;;
41311;SDS011;27061;41.648;24.568;2022-07-29T16:30:53;3.65;;;2.80;;
41311;SDS011;27061;41.648;24.568;2022-07-29T16:33:45;9.18;;;3.00;;
41311;SDS011;27061;41.648;24.568;2022-07-29T16:36:21;5.20;;;2.67;;
41311;SDS011;27061;41.648;24.568;2022-07-29T16:38:50;16.63;;;3.67;;
41311;SDS011;27061;41.648;24.568;2022-07-29T16:41:18;18.27;;;3.15;;
41311;SDS011;27061;41.648;24.568;2022-07-29T16:43:47;4.13;;;2.88;;
41311;SDS011;27061;41.648;24.568;2022-07-29T16:46:15;24.73;;;4.20;;
41311;SDS011;27061;41.648;24.568;2022-07-29T16:51:44;13.98;;;3.97;;
41311;SDS011;27061;41.648;24.568;2022-07-29T16:54:38;18.02;;;3.00;;
41311;SDS011;27061;41.648;24.568;2022-07-29T16:57:06;6.07;;;3.00;;
41311;SDS011;27061;41.648;24.568;2022-07-29T16:59:34;5.93;;;3.00;;
41311;SDS011;27061;41.648;24.568;2022-07-29T17:02:09;4.13;;;2.67;;
41311;SDS011;27061;41.648;24.568;2022-07-29T17:04:38;3.10;;;2.90;;
41311;SDS011;27061;41.648;24.568;2022-07-29T17:07:05;2.65;;;2.47;;